Aviation Digital Data Service (ADDS)

Output produced by METARs form (2119 UTC 03 August 2015)
found at http://aviationweather.gov/adds/metars/
 
KORF 031958Z 0320/0418 19012G18KT P6SM SCT050 SCT100 
     FM040000 21012KT P6SM SKC 
     FM041400 22013KT P6SM SCT090